Pagina principale
METAR-TAF:

METAR-TAF

Aeroporti :

Aeroporto di Tirana

Tirana, Albania

latitudine: 41-20N, longitudine: 019-47E, altezza: 89 m

Osservazione

Il bollettino è stato emesso 32 minuti fa, alle 19:50 UTC
Vento 5 kt da est/sud-est
Temperature 6°C
Umidità 81%
Pressione 1022 hPa
Visibilità 10 km o più
nessuna nube inferiore a 1500 m e nessun cumulonembo

METAR: LATI 211950Z 12005KT CAVOK 06/03 Q1022 NOSIG

Ora: 21:22 (20:22 UTC)

Previsione

Il bollettino è stato emesso 3 ore e 22 minuti fa, alle 17:00 UTC
Previsione valida dal 21 alle 18 UTC al 22 alle 18 UTC
Vento 5 kt da direzioni variabili
Visibilità 10 km o più
nessuna nube inferiore a 1500 m e nessun cumulonembo
Temporaneamente
dal 22 alle 10 UTC al 22 alle 16 UTC
Vento 10 kt da nord/nord-ovest

TAF: LATI 211700Z 2118/2218 VRB05KT CAVOK TX19/2212Z TN01/2205Z TEMPO 2210/2216 34010KT

Osservazioni e previsioni meteorologiche di più di 4000 aeroporti (messaggi METAR e TAF).

Le stazioni disponibili sono rappresentate dai dischi gialli e rossi sulla carta.

Puntare il mouse per vedere il nome della stazione.

Clicca sopra per visualizzare le osservazioni e previsioni meteorologiche.

Per cambiare la mappa : fare clic sui pulsanti verdi con una croce nera per ingrandire, il pulsante verde con un trattino per diminuire, o sulla freccia verde per le mappe adiacenti.


METAR-TAF: